sensor_id;sensor_type;location;lat;lon;timestamp;temperature;humidity
2861;DHT22;1438;50.922;6.704;2023-07-29T00:00:37;19.20;99.90
2861;DHT22;1438;50.922;6.704;2023-07-29T00:03:03;19.20;99.90
2861;DHT22;1438;50.922;6.704;2023-07-29T00:05:28;19.20;99.90
2861;DHT22;1438;50.922;6.704;2023-07-29T00:07:54;19.20;99.90
2861;DHT22;1438;50.922;6.704;2023-07-29T00:10:20;19.10;99.90
2861;DHT22;1438;50.922;6.704;2023-07-29T00:12:45;19.20;99.90
2861;DHT22;1438;50.922;6.704;2023-07-29T00:15:11;19.10;99.90
2861;DHT22;1438;50.922;6.704;2023-07-29T00:17:37;19.10;99.90
2861;DHT22;1438;50.922;6.704;2023-07-29T00:20:03;19.10;99.90
2861;DHT22;1438;50.922;6.704;2023-07-29T00:22:28;19.10;99.90
2861;DHT22;1438;50.922;6.704;2023-07-29T00:24:54;19.10;99.90
2861;DHT22;1438;50.922;6.704;2023-07-29T00:27:20;19.10;99.90
2861;DHT22;1438;50.922;6.704;2023-07-29T00:29:46;19.10;99.90
2861;DHT22;1438;50.922;6.704;2023-07-29T00:32:12;19.10;99.90
2861;DHT22;1438;50.922;6.704;2023-07-29T00:34:38;19.10;99.90
2861;DHT22;1438;50.922;6.704;2023-07-29T00:37:03;19.10;99.90
2861;DHT22;1438;50.922;6.704;2023-07-29T00:39:31;19.10;99.90
2861;DHT22;1438;50.922;6.704;2023-07-29T00:41:57;19.10;99.90
2861;DHT22;1438;50.922;6.704;2023-07-29T00:44:22;19.10;99.90
2861;DHT22;1438;50.922;6.704;2023-07-29T00:46:50;19.10;99.90
2861;DHT22;1438;50.922;6.704;2023-07-29T00:49:16;19.10;99.90
2861;DHT22;1438;50.922;6.704;2023-07-29T00:51:41;19.10;99.90
2861;DHT22;1438;50.922;6.704;2023-07-29T00:54:07;19.10;99.90
2861;DHT22;1438;50.922;6.704;2023-07-29T00:56:33;19.10;99.90
2861;DHT22;1438;50.922;6.704;2023-07-29T00:58:59;19.10;99.90
2861;DHT22;1438;50.922;6.704;2023-07-29T01:01:30;19.10;99.90
2861;DHT22;1438;50.922;6.704;2023-07-29T01:03:56;19.10;99.90
2861;DHT22;1438;50.922;6.704;2023-07-29T01:06:53;19.10;99.90
2861;DHT22;1438;50.922;6.704;2023-07-29T01:12:41;19.20;99.90
2861;DHT22;1438;50.922;6.704;2023-07-29T01:17:48;19.20;99.90
2861;DHT22;1438;50.922;6.704;2023-07-29T01:20:16;19.20;99.90
2861;DHT22;1438;50.922;6.704;2023-07-29T01:22:46;19.10;99.90
2861;DHT22;1438;50.922;6.704;2023-07-29T01:25:15;19.10;99.90
2861;DHT22;1438;50.922;6.704;2023-07-29T01:27:43;19.10;99.90
2861;DHT22;1438;50.922;6.704;2023-07-29T01:30:09;19.10;99.90
2861;DHT22;1438;50.922;6.704;2023-07-29T01:32:54;19.00;99.90
2861;DHT22;1438;50.922;6.704;2023-07-29T01:35:28;19.00;99.90
2861;DHT22;1438;50.922;6.704;2023-07-29T01:37:59;19.00;99.90
2861;DHT22;1438;50.922;6.704;2023-07-29T01:40:27;18.90;99.90
2861;DHT22;1438;50.922;6.704;2023-07-29T01:42:53;18.90;99.90
2861;DHT22;1438;50.922;6.704;2023-07-29T01:45:23;18.90;99.90
2861;DHT22;1438;50.922;6.704;2023-07-29T01:47:49;18.80;99.90
2861;DHT22;1438;50.922;6.704;2023-07-29T01:50:17;18.80;99.90
2861;DHT22;1438;50.922;6.704;2023-07-29T01:52:42;18.70;99.90
2861;DHT22;1438;50.922;6.704;2023-07-29T01:55:08;18.70;99.90
2861;DHT22;1438;50.922;6.704;2023-07-29T01:57:33;18.70;99.90
2861;DHT22;1438;50.922;6.704;2023-07-29T01:59:59;18.60;99.90
2861;DHT22;1438;50.922;6.704;2023-07-29T02:02:25;18.60;99.90
2861;DHT22;1438;50.922;6.704;2023-07-29T02:04:51;18.60;99.90
2861;DHT22;1438;50.922;6.704;2023-07-29T02:07:18;18.60;99.90
2861;DHT22;1438;50.922;6.704;2023-07-29T02:09:44;18.60;99.90
2861;DHT22;1438;50.922;6.704;2023-07-29T02:12:10;18.60;99.90
2861;DHT22;1438;50.922;6.704;2023-07-29T02:14:36;18.60;99.90
2861;DHT22;1438;50.922;6.704;2023-07-29T02:17:01;18.60;99.90
2861;DHT22;1438;50.922;6.704;2023-07-29T02:19:27;18.60;99.90
2861;DHT22;1438;50.922;6.704;2023-07-29T02:21:53;18.60;99.90
2861;DHT22;1438;50.922;6.704;2023-07-29T02:24:18;18.50;99.90
2861;DHT22;1438;50.922;6.704;2023-07-29T02:26:44;18.50;99.90
2861;DHT22;1438;50.922;6.704;2023-07-29T02:29:10;18.60;99.90
2861;DHT22;1438;50.922;6.704;2023-07-29T02:31:35;18.50;99.90
2861;DHT22;1438;50.922;6.704;2023-07-29T02:34:03;18.50;99.90
2861;DHT22;1438;50.922;6.704;2023-07-29T02:36:28;18.50;99.90
2861;DHT22;1438;50.922;6.704;2023-07-29T02:38:54;18.50;99.90
2861;DHT22;1438;50.922;6.704;2023-07-29T02:41:20;18.50;99.90
2861;DHT22;1438;50.922;6.704;2023-07-29T02:43:49;18.40;99.90
2861;DHT22;1438;50.922;6.704;2023-07-29T02:46:15;18.50;99.90
2861;DHT22;1438;50.922;6.704;2023-07-29T02:48:42;18.50;99.90
2861;DHT22;1438;50.922;6.704;2023-07-29T02:51:08;18.40;99.90
2861;DHT22;1438;50.922;6.704;2023-07-29T02:53:33;18.40;99.90
2861;DHT22;1438;50.922;6.704;2023-07-29T02:56:02;18.40;99.90
2861;DHT22;1438;50.922;6.704;2023-07-29T02:58:28;18.50;99.90
2861;DHT22;1438;50.922;6.704;2023-07-29T03:00:54;18.40;99.90
2861;DHT22;1438;50.922;6.704;2023-07-29T03:03:25;18.40;99.90
2861;DHT22;1438;50.922;6.704;2023-07-29T03:08:25;18.40;99.90
2861;DHT22;1438;50.922;6.704;2023-07-29T03:10:51;18.40;99.90
2861;DHT22;1438;50.922;6.704;2023-07-29T03:13:17;18.40;99.90
2861;DHT22;1438;50.922;6.704;2023-07-29T03:15:42;18.40;99.90
2861;DHT22;1438;50.922;6.704;2023-07-29T03:18:08;18.30;99.90
2861;DHT22;1438;50.922;6.704;2023-07-29T03:20:33;18.30;99.90
2861;DHT22;1438;50.922;6.704;2023-07-29T03:22:59;18.30;99.90
2861;DHT22;1438;50.922;6.704;2023-07-29T03:25:24;18.30;99.90
2861;DHT22;1438;50.922;6.704;2023-07-29T03:27:50;18.40;99.90
2861;DHT22;1438;50.922;6.704;2023-07-29T03:30:19;18.30;99.90
2861;DHT22;1438;50.922;6.704;2023-07-29T03:32:45;18.30;99.90
2861;DHT22;1438;50.922;6.704;2023-07-29T03:35:11;18.30;99.90
2861;DHT22;1438;50.922;6.704;2023-07-29T03:37:36;18.20;99.90
2861;DHT22;1438;50.922;6.704;2023-07-29T03:40:02;18.20;99.90
2861;DHT22;1438;50.922;6.704;2023-07-29T03:42:28;18.10;99.90
2861;DHT22;1438;50.922;6.704;2023-07-29T03:44:54;18.10;99.90
2861;DHT22;1438;50.922;6.704;2023-07-29T03:47:19;18.10;99.90
2861;DHT22;1438;50.922;6.704;2023-07-29T03:49:45;18.10;99.90
2861;DHT22;1438;50.922;6.704;2023-07-29T03:52:11;18.10;99.90
2861;DHT22;1438;50.922;6.704;2023-07-29T03:54:36;18.10;99.90
2861;DHT22;1438;50.922;6.704;2023-07-29T03:57:02;18.00;99.90
2861;DHT22;1438;50.922;6.704;2023-07-29T03:59:27;18.00;99.90
2861;DHT22;1438;50.922;6.704;2023-07-29T04:01:53;18.00;99.90
2861;DHT22;1438;50.922;6.704;2023-07-29T04:04:19;18.00;99.90
2861;DHT22;1438;50.922;6.704;2023-07-29T04:06:44;17.90;99.90
2861;DHT22;1438;50.922;6.704;2023-07-29T04:09:12;17.90;99.90
2861;DHT22;1438;50.922;6.704;2023-07-29T04:11:38;17.90;99.90
2861;DHT22;1438;50.922;6.704;2023-07-29T04:14:04;17.90;99.90
2861;DHT22;1438;50.922;6.704;2023-07-29T04:16:29;17.80;99.90
2861;DHT22;1438;50.922;6.704;2023-07-29T04:18:55;17.80;99.90
2861;DHT22;1438;50.922;6.704;2023-07-29T04:21:21;17.70;99.90
2861;DHT22;1438;50.922;6.704;2023-07-29T04:23:46;17.80;99.90
2861;DHT22;1438;50.922;6.704;2023-07-29T04:26:12;17.80;99.90
2861;DHT22;1438;50.922;6.704;2023-07-29T04:28:37;17.70;99.90
2861;DHT22;1438;50.922;6.704;2023-07-29T04:31:03;17.70;99.90
2861;DHT22;1438;50.922;6.704;2023-07-29T04:33:30;17.80;99.90
2861;DHT22;1438;50.922;6.704;2023-07-29T04:35:56;17.70;99.90
2861;DHT22;1438;50.922;6.704;2023-07-29T04:38:22;17.70;99.90
2861;DHT22;1438;50.922;6.704;2023-07-29T04:40:50;17.80;99.90
2861;DHT22;1438;50.922;6.704;2023-07-29T04:43:18;17.80;99.90
2861;DHT22;1438;50.922;6.704;2023-07-29T04:45:44;17.80;99.90
2861;DHT22;1438;50.922;6.704;2023-07-29T04:48:10;17.80;99.90
2861;DHT22;1438;50.922;6.704;2023-07-29T04:50:35;17.80;99.90
2861;DHT22;1438;50.922;6.704;2023-07-29T04:53:01;17.80;99.90
2861;DHT22;1438;50.922;6.704;2023-07-29T04:55:26;17.80;99.90
2861;DHT22;1438;50.922;6.704;2023-07-29T04:57:54;17.80;99.90
2861;DHT22;1438;50.922;6.704;2023-07-29T05:00:20;17.80;99.90
2861;DHT22;1438;50.922;6.704;2023-07-29T05:02:45;17.80;99.90
2861;DHT22;1438;50.922;6.704;2023-07-29T05:05:11;17.70;99.90
2861;DHT22;1438;50.922;6.704;2023-07-29T05:07:37;17.80;99.90
2861;DHT22;1438;50.922;6.704;2023-07-29T05:10:03;17.70;99.90
2861;DHT22;1438;50.922;6.704;2023-07-29T05:12:28;17.80;99.90
2861;DHT22;1438;50.922;6.704;2023-07-29T05:14:54;17.80;99.90
2861;DHT22;1438;50.922;6.704;2023-07-29T05:17:21;17.70;99.90
2861;DHT22;1438;50.922;6.704;2023-07-29T05:19:46;17.80;99.90
2861;DHT22;1438;50.922;6.704;2023-07-29T05:22:15;17.80;99.90
2861;DHT22;1438;50.922;6.704;2023-07-29T05:24:40;17.90;99.90
2861;DHT22;1438;50.922;6.704;2023-07-29T05:27:06;17.90;99.90
2861;DHT22;1438;50.922;6.704;2023-07-29T05:29:34;18.00;99.90
2861;DHT22;1438;50.922;6.704;2023-07-29T05:31:59;17.90;99.90
2861;DHT22;1438;50.922;6.704;2023-07-29T05:34:25;17.90;99.90
2861;DHT22;1438;50.922;6.704;2023-07-29T05:36:50;17.90;99.90
2861;DHT22;1438;50.922;6.704;2023-07-29T05:39:16;18.00;99.90
2861;DHT22;1438;50.922;6.704;2023-07-29T05:41:42;18.00;99.90
2861;DHT22;1438;50.922;6.704;2023-07-29T05:44:07;18.00;99.90
2861;DHT22;1438;50.922;6.704;2023-07-29T05:46:33;18.00;99.90
2861;DHT22;1438;50.922;6.704;2023-07-29T05:49:01;18.00;99.90
2861;DHT22;1438;50.922;6.704;2023-07-29T05:51:28;18.00;99.90
2861;DHT22;1438;50.922;6.704;2023-07-29T05:53:53;18.00;99.90
2861;DHT22;1438;50.922;6.704;2023-07-29T05:56:21;18.00;99.90
2861;DHT22;1438;50.922;6.704;2023-07-29T05:58:47;18.00;99.90
2861;DHT22;1438;50.922;6.704;2023-07-29T06:01:13;18.00;99.90
2861;DHT22;1438;50.922;6.704;2023-07-29T06:03:38;18.00;99.90
2861;DHT22;1438;50.922;6.704;2023-07-29T06:06:04;18.10;99.90
2861;DHT22;1438;50.922;6.704;2023-07-29T06:08:30;18.10;99.90
2861;DHT22;1438;50.922;6.704;2023-07-29T06:10:58;18.10;99.90
2861;DHT22;1438;50.922;6.704;2023-07-29T06:13:23;18.10;99.90
2861;DHT22;1438;50.922;6.704;2023-07-29T06:15:49;18.10;99.90
2861;DHT22;1438;50.922;6.704;2023-07-29T06:18:18;18.10;99.90
2861;DHT22;1438;50.922;6.704;2023-07-29T06:20:46;18.20;99.90
2861;DHT22;1438;50.922;6.704;2023-07-29T06:23:11;18.20;99.90
2861;DHT22;1438;50.922;6.704;2023-07-29T06:25:40;18.20;99.90
2861;DHT22;1438;50.922;6.704;2023-07-29T06:28:05;18.20;99.90
2861;DHT22;1438;50.922;6.704;2023-07-29T06:30:31;18.20;99.90
2861;DHT22;1438;50.922;6.704;2023-07-29T06:32:57;18.20;99.90
2861;DHT22;1438;50.922;6.704;2023-07-29T06:35:22;18.20;99.90
2861;DHT22;1438;50.922;6.704;2023-07-29T06:37:49;18.30;99.90
2861;DHT22;1438;50.922;6.704;2023-07-29T06:40:14;18.30;99.90
2861;DHT22;1438;50.922;6.704;2023-07-29T06:42:40;18.40;99.90
2861;DHT22;1438;50.922;6.704;2023-07-29T06:45:06;18.40;99.90
2861;DHT22;1438;50.922;6.704;2023-07-29T06:47:32;18.40;99.90
2861;DHT22;1438;50.922;6.704;2023-07-29T06:49:58;18.50;99.90
2861;DHT22;1438;50.922;6.704;2023-07-29T06:52:23;18.60;99.90
2861;DHT22;1438;50.922;6.704;2023-07-29T06:54:49;18.70;99.90
2861;DHT22;1438;50.922;6.704;2023-07-29T06:57:14;18.80;99.90
2861;DHT22;1438;50.922;6.704;2023-07-29T06:59:40;18.90;99.90
2861;DHT22;1438;50.922;6.704;2023-07-29T07:02:07;18.90;99.90
2861;DHT22;1438;50.922;6.704;2023-07-29T07:04:32;19.10;99.90
2861;DHT22;1438;50.922;6.704;2023-07-29T07:06:58;19.10;99.90
2861;DHT22;1438;50.922;6.704;2023-07-29T07:09:24;19.10;99.90
2861;DHT22;1438;50.922;6.704;2023-07-29T07:11:52;19.00;99.90
2861;DHT22;1438;50.922;6.704;2023-07-29T07:14:18;19.10;99.90
2861;DHT22;1438;50.922;6.704;2023-07-29T07:16:44;19.00;99.90
2861;DHT22;1438;50.922;6.704;2023-07-29T07:19:10;18.80;99.90
2861;DHT22;1438;50.922;6.704;2023-07-29T07:21:36;18.80;99.90
2861;DHT22;1438;50.922;6.704;2023-07-29T07:24:01;18.90;99.90
2861;DHT22;1438;50.922;6.704;2023-07-29T07:26:27;19.00;99.90
2861;DHT22;1438;50.922;6.704;2023-07-29T07:28:53;19.20;99.90
2861;DHT22;1438;50.922;6.704;2023-07-29T07:31:18;19.30;99.90
2861;DHT22;1438;50.922;6.704;2023-07-29T07:33:44;19.30;99.90
2861;DHT22;1438;50.922;6.704;2023-07-29T07:36:10;19.20;99.90
2861;DHT22;1438;50.922;6.704;2023-07-29T07:38:35;19.20;99.90
2861;DHT22;1438;50.922;6.704;2023-07-29T07:41:02;19.20;99.90
2861;DHT22;1438;50.922;6.704;2023-07-29T07:43:29;19.30;99.90
2861;DHT22;1438;50.922;6.704;2023-07-29T07:46:00;19.40;99.90
2861;DHT22;1438;50.922;6.704;2023-07-29T07:48:27;19.50;99.90
2861;DHT22;1438;50.922;6.704;2023-07-29T07:50:53;19.60;99.90
2861;DHT22;1438;50.922;6.704;2023-07-29T07:53:18;19.40;99.90
2861;DHT22;1438;50.922;6.704;2023-07-29T07:55:45;19.50;99.90
2861;DHT22;1438;50.922;6.704;2023-07-29T07:58:11;19.50;99.90
2861;DHT22;1438;50.922;6.704;2023-07-29T08:00:36;19.50;99.90
2861;DHT22;1438;50.922;6.704;2023-07-29T08:03:02;19.50;99.90
2861;DHT22;1438;50.922;6.704;2023-07-29T08:05:27;19.50;99.90
2861;DHT22;1438;50.922;6.704;2023-07-29T08:07:53;19.70;99.90
2861;DHT22;1438;50.922;6.704;2023-07-29T08:10:19;19.90;99.90
2861;DHT22;1438;50.922;6.704;2023-07-29T08:12:44;20.20;99.90
2861;DHT22;1438;50.922;6.704;2023-07-29T08:15:10;20.30;99.90
2861;DHT22;1438;50.922;6.704;2023-07-29T08:17:35;20.30;99.90
2861;DHT22;1438;50.922;6.704;2023-07-29T08:20:01;20.20;99.90
2861;DHT22;1438;50.922;6.704;2023-07-29T08:22:27;20.40;99.90
2861;DHT22;1438;50.922;6.704;2023-07-29T08:24:52;20.60;99.90
2861;DHT22;1438;50.922;6.704;2023-07-29T08:27:20;20.60;99.90
2861;DHT22;1438;50.922;6.704;2023-07-29T08:29:45;20.50;99.90
2861;DHT22;1438;50.922;6.704;2023-07-29T08:32:14;20.30;99.90
2861;DHT22;1438;50.922;6.704;2023-07-29T08:34:39;20.30;99.90
2861;DHT22;1438;50.922;6.704;2023-07-29T08:37:05;20.30;99.90
2861;DHT22;1438;50.922;6.704;2023-07-29T08:39:31;20.40;99.90
2861;DHT22;1438;50.922;6.704;2023-07-29T08:42:01;20.30;99.90
2861;DHT22;1438;50.922;6.704;2023-07-29T08:44:43;20.40;99.90
2861;DHT22;1438;50.922;6.704;2023-07-29T08:47:09;20.40;99.90
2861;DHT22;1438;50.922;6.704;2023-07-29T08:49:36;20.40;99.90
2861;DHT22;1438;50.922;6.704;2023-07-29T08:52:03;20.50;99.90
2861;DHT22;1438;50.922;6.704;2023-07-29T08:54:29;20.50;99.90
2861;DHT22;1438;50.922;6.704;2023-07-29T08:56:55;20.50;99.90
2861;DHT22;1438;50.922;6.704;2023-07-29T08:59:21;20.50;99.90
2861;DHT22;1438;50.922;6.704;2023-07-29T09:01:47;20.40;99.90
2861;DHT22;1438;50.922;6.704;2023-07-29T09:04:13;20.30;99.90
2861;DHT22;1438;50.922;6.704;2023-07-29T09:06:39;20.50;99.90
2861;DHT22;1438;50.922;6.704;2023-07-29T09:09:07;20.50;99.90
2861;DHT22;1438;50.922;6.704;2023-07-29T09:11:33;20.60;99.90
2861;DHT22;1438;50.922;6.704;2023-07-29T09:13:59;20.70;99.90
2861;DHT22;1438;50.922;6.704;2023-07-29T09:16:25;20.90;99.90
2861;DHT22;1438;50.922;6.704;2023-07-29T09:18:51;20.80;99.90
2861;DHT22;1438;50.922;6.704;2023-07-29T09:21:22;20.90;99.90
2861;DHT22;1438;50.922;6.704;2023-07-29T09:23:50;20.90;99.90
2861;DHT22;1438;50.922;6.704;2023-07-29T09:26:25;20.90;99.90
2861;DHT22;1438;50.922;6.704;2023-07-29T09:28:53;21.00;99.90
2861;DHT22;1438;50.922;6.704;2023-07-29T09:31:20;21.20;99.90
2861;DHT22;1438;50.922;6.704;2023-07-29T09:33:46;21.40;99.90
2861;DHT22;1438;50.922;6.704;2023-07-29T09:36:12;21.50;99.90
2861;DHT22;1438;50.922;6.704;2023-07-29T09:38:38;21.40;99.90
2861;DHT22;1438;50.922;6.704;2023-07-29T09:41:04;21.40;99.90
2861;DHT22;1438;50.922;6.704;2023-07-29T09:43:33;21.50;99.90
2861;DHT22;1438;50.922;6.704;2023-07-29T09:46:03;21.40;99.90
2861;DHT22;1438;50.922;6.704;2023-07-29T09:48:34;21.70;99.90
2861;DHT22;1438;50.922;6.704;2023-07-29T09:51:01;21.90;99.90
2861;DHT22;1438;50.922;6.704;2023-07-29T09:53:48;21.80;99.90
2861;DHT22;1438;50.922;6.704;2023-07-29T09:56:15;21.80;99.90
2861;DHT22;1438;50.922;6.704;2023-07-29T09:58:43;21.70;99.90
2861;DHT22;1438;50.922;6.704;2023-07-29T10:01:11;21.60;99.90
2861;DHT22;1438;50.922;6.704;2023-07-29T10:03:36;21.70;99.90
2861;DHT22;1438;50.922;6.704;2023-07-29T10:06:04;21.70;99.90
2861;DHT22;1438;50.922;6.704;2023-07-29T10:08:30;21.50;99.90
2861;DHT22;1438;50.922;6.704;2023-07-29T10:10:59;21.40;99.90
2861;DHT22;1438;50.922;6.704;2023-07-29T10:13:26;21.20;99.90
2861;DHT22;1438;50.922;6.704;2023-07-29T10:15:54;21.10;99.90
2861;DHT22;1438;50.922;6.704;2023-07-29T10:18:23;21.00;99.90
2861;DHT22;1438;50.922;6.704;2023-07-29T10:20:51;21.10;99.90
2861;DHT22;1438;50.922;6.704;2023-07-29T10:23:18;21.10;99.90
2861;DHT22;1438;50.922;6.704;2023-07-29T10:26:05;21.10;99.90
2861;DHT22;1438;50.922;6.704;2023-07-29T10:28:32;21.00;99.90
2861;DHT22;1438;50.922;6.704;2023-07-29T10:30:58;20.90;99.90
2861;DHT22;1438;50.922;6.704;2023-07-29T10:33:25;20.70;99.90
2861;DHT22;1438;50.922;6.704;2023-07-29T10:35:51;20.60;99.90
2861;DHT22;1438;50.922;6.704;2023-07-29T10:38:19;20.60;99.90
2861;DHT22;1438;50.922;6.704;2023-07-29T10:40:51;20.60;99.90
2861;DHT22;1438;50.922;6.704;2023-07-29T10:45:55;20.70;99.90
2861;DHT22;1438;50.922;6.704;2023-07-29T10:51:29;21.00;99.90
2861;DHT22;1438;50.922;6.704;2023-07-29T10:53:56;21.20;99.90
2861;DHT22;1438;50.922;6.704;2023-07-29T10:56:36;21.20;99.90
2861;DHT22;1438;50.922;6.704;2023-07-29T11:01:39;22.20;99.90
2861;DHT22;1438;50.922;6.704;2023-07-29T11:12:39;22.10;99.90
2861;DHT22;1438;50.922;6.704;2023-07-29T11:18:03;22.50;99.90
2861;DHT22;1438;50.922;6.704;2023-07-29T11:20:30;23.20;99.90
2861;DHT22;1438;50.922;6.704;2023-07-29T11:22:58;23.90;99.90
2861;DHT22;1438;50.922;6.704;2023-07-29T11:25:26;24.80;99.90
2861;DHT22;1438;50.922;6.704;2023-07-29T11:27:53;25.10;99.90
2861;DHT22;1438;50.922;6.704;2023-07-29T11:30:20;24.90;99.90
2861;DHT22;1438;50.922;6.704;2023-07-29T11:32:46;24.60;99.90
2861;DHT22;1438;50.922;6.704;2023-07-29T11:35:13;24.60;99.90
2861;DHT22;1438;50.922;6.704;2023-07-29T11:37:40;25.10;99.90
2861;DHT22;1438;50.922;6.704;2023-07-29T11:40:07;25.50;99.90
2861;DHT22;1438;50.922;6.704;2023-07-29T11:42:34;25.90;99.90
2861;DHT22;1438;50.922;6.704;2023-07-29T11:45:01;26.50;99.90
2861;DHT22;1438;50.922;6.704;2023-07-29T11:47:28;27.10;99.90
2861;DHT22;1438;50.922;6.704;2023-07-29T11:49:53;27.80;99.90
2861;DHT22;1438;50.922;6.704;2023-07-29T11:52:19;27.60;99.90
2861;DHT22;1438;50.922;6.704;2023-07-29T11:54:47;27.70;99.90
2861;DHT22;1438;50.922;6.704;2023-07-29T11:57:13;27.80;99.90
2861;DHT22;1438;50.922;6.704;2023-07-29T11:59:40;27.20;99.90
2861;DHT22;1438;50.922;6.704;2023-07-29T12:02:15;26.60;99.90
2861;DHT22;1438;50.922;6.704;2023-07-29T12:04:42;26.50;99.90
2861;DHT22;1438;50.922;6.704;2023-07-29T12:07:08;27.30;99.90
2861;DHT22;1438;50.922;6.704;2023-07-29T12:09:37;27.60;99.90
2861;DHT22;1438;50.922;6.704;2023-07-29T12:12:06;27.10;99.90
2861;DHT22;1438;50.922;6.704;2023-07-29T12:14:33;27.10;99.90
2861;DHT22;1438;50.922;6.704;2023-07-29T12:17:04;27.90;99.90
2861;DHT22;1438;50.922;6.704;2023-07-29T12:19:34;28.10;99.90
2861;DHT22;1438;50.922;6.704;2023-07-29T12:22:01;28.50;99.90
2861;DHT22;1438;50.922;6.704;2023-07-29T12:24:27;29.00;99.90
2861;DHT22;1438;50.922;6.704;2023-07-29T12:26:54;29.20;99.90
2861;DHT22;1438;50.922;6.704;2023-07-29T12:29:20;29.10;99.90
2861;DHT22;1438;50.922;6.704;2023-07-29T12:31:46;28.50;99.90
2861;DHT22;1438;50.922;6.704;2023-07-29T12:34:21;28.50;99.90
2861;DHT22;1438;50.922;6.704;2023-07-29T12:36:51;28.50;99.90
2861;DHT22;1438;50.922;6.704;2023-07-29T12:39:28;28.60;99.90
2861;DHT22;1438;50.922;6.704;2023-07-29T12:41:58;28.30;99.90
2861;DHT22;1438;50.922;6.704;2023-07-29T12:44:27;27.80;99.90
2861;DHT22;1438;50.922;6.704;2023-07-29T12:46:52;27.80;99.90
2861;DHT22;1438;50.922;6.704;2023-07-29T12:49:18;27.40;99.90
2861;DHT22;1438;50.922;6.704;2023-07-29T12:51:45;27.40;99.90
2861;DHT22;1438;50.922;6.704;2023-07-29T12:54:11;27.40;99.90
2861;DHT22;1438;50.922;6.704;2023-07-29T12:56:36;27.40;99.90
2861;DHT22;1438;50.922;6.704;2023-07-29T12:59:02;27.30;99.90
2861;DHT22;1438;50.922;6.704;2023-07-29T13:01:29;27.30;99.90
2861;DHT22;1438;50.922;6.704;2023-07-29T13:03:55;27.50;99.90
2861;DHT22;1438;50.922;6.704;2023-07-29T13:06:21;26.90;99.90
2861;DHT22;1438;50.922;6.704;2023-07-29T13:08:47;26.80;99.90
2861;DHT22;1438;50.922;6.704;2023-07-29T13:11:14;26.50;99.90
2861;DHT22;1438;50.922;6.704;2023-07-29T13:13:40;26.30;99.90
2861;DHT22;1438;50.922;6.704;2023-07-29T13:16:05;25.80;99.90
2861;DHT22;1438;50.922;6.704;2023-07-29T13:18:32;25.90;99.90
2861;DHT22;1438;50.922;6.704;2023-07-29T13:20:58;25.60;99.90
2861;DHT22;1438;50.922;6.704;2023-07-29T13:23:24;25.10;99.90
2861;DHT22;1438;50.922;6.704;2023-07-29T13:25:49;24.50;99.90
2861;DHT22;1438;50.922;6.704;2023-07-29T13:28:15;23.80;99.90
2861;DHT22;1438;50.922;6.704;2023-07-29T13:30:41;23.40;99.90
2861;DHT22;1438;50.922;6.704;2023-07-29T13:33:07;22.90;99.90
2861;DHT22;1438;50.922;6.704;2023-07-29T13:35:33;22.20;99.90
2861;DHT22;1438;50.922;6.704;2023-07-29T13:37:59;21.70;99.90
2861;DHT22;1438;50.922;6.704;2023-07-29T13:40:25;21.30;99.90
2861;DHT22;1438;50.922;6.704;2023-07-29T13:42:54;21.10;99.90
2861;DHT22;1438;50.922;6.704;2023-07-29T13:45:20;20.60;99.90
2861;DHT22;1438;50.922;6.704;2023-07-29T13:47:46;20.30;99.90
2861;DHT22;1438;50.922;6.704;2023-07-29T13:50:11;20.10;99.90
2861;DHT22;1438;50.922;6.704;2023-07-29T13:52:37;19.90;99.90
2861;DHT22;1438;50.922;6.704;2023-07-29T13:55:06;19.80;99.90
2861;DHT22;1438;50.922;6.704;2023-07-29T13:57:32;19.60;99.90
2861;DHT22;1438;50.922;6.704;2023-07-29T13:59:58;19.60;99.90
2861;DHT22;1438;50.922;6.704;2023-07-29T14:02:23;19.80;99.90
2861;DHT22;1438;50.922;6.704;2023-07-29T14:04:49;19.90;99.90
2861;DHT22;1438;50.922;6.704;2023-07-29T14:07:15;20.00;99.90
2861;DHT22;1438;50.922;6.704;2023-07-29T14:09:41;20.10;99.90
2861;DHT22;1438;50.922;6.704;2023-07-29T14:12:08;20.20;99.90
2861;DHT22;1438;50.922;6.704;2023-07-29T14:14:38;20.40;99.90
2861;DHT22;1438;50.922;6.704;2023-07-29T14:17:03;20.60;99.90
2861;DHT22;1438;50.922;6.704;2023-07-29T14:19:29;20.80;99.90
2861;DHT22;1438;50.922;6.704;2023-07-29T14:21:55;21.20;99.90
2861;DHT22;1438;50.922;6.704;2023-07-29T14:24:20;21.50;99.90
2861;DHT22;1438;50.922;6.704;2023-07-29T14:26:47;21.90;99.90
2861;DHT22;1438;50.922;6.704;2023-07-29T14:29:13;21.80;99.90
2861;DHT22;1438;50.922;6.704;2023-07-29T14:31:38;21.80;99.90
2861;DHT22;1438;50.922;6.704;2023-07-29T14:34:04;21.80;99.90
2861;DHT22;1438;50.922;6.704;2023-07-29T14:36:29;21.80;99.90
2861;DHT22;1438;50.922;6.704;2023-07-29T14:38:58;21.70;99.90
2861;DHT22;1438;50.922;6.704;2023-07-29T14:41:24;21.60;99.90
2861;DHT22;1438;50.922;6.704;2023-07-29T14:43:49;21.50;99.90
2861;DHT22;1438;50.922;6.704;2023-07-29T14:46:15;21.30;99.90
2861;DHT22;1438;50.922;6.704;2023-07-29T14:48:41;21.20;99.90
2861;DHT22;1438;50.922;6.704;2023-07-29T14:51:06;21.10;99.90
2861;DHT22;1438;50.922;6.704;2023-07-29T14:53:32;20.90;99.90
2861;DHT22;1438;50.922;6.704;2023-07-29T14:55:58;20.70;99.90
2861;DHT22;1438;50.922;6.704;2023-07-29T14:58:23;20.50;99.90
2861;DHT22;1438;50.922;6.704;2023-07-29T15:00:51;20.30;99.90
2861;DHT22;1438;50.922;6.704;2023-07-29T15:03:17;20.20;99.90
2861;DHT22;1438;50.922;6.704;2023-07-29T15:05:43;20.40;99.90
2861;DHT22;1438;50.922;6.704;2023-07-29T15:08:08;20.60;99.90
2861;DHT22;1438;50.922;6.704;2023-07-29T15:10:34;20.90;99.90
2861;DHT22;1438;50.922;6.704;2023-07-29T15:13:00;21.60;99.90
2861;DHT22;1438;50.922;6.704;2023-07-29T15:15:25;21.80;99.90
2861;DHT22;1438;50.922;6.704;2023-07-29T15:17:51;22.40;99.90
2861;DHT22;1438;50.922;6.704;2023-07-29T15:20:17;22.90;99.90
2861;DHT22;1438;50.922;6.704;2023-07-29T15:22:44;23.80;99.90
2861;DHT22;1438;50.922;6.704;2023-07-29T15:25:10;24.20;99.90
2861;DHT22;1438;50.922;6.704;2023-07-29T15:27:36;24.20;99.90
2861;DHT22;1438;50.922;6.704;2023-07-29T15:30:03;24.00;99.90
2861;DHT22;1438;50.922;6.704;2023-07-29T15:32:29;23.80;99.90
2861;DHT22;1438;50.922;6.704;2023-07-29T15:34:54;23.00;99.90
2861;DHT22;1438;50.922;6.704;2023-07-29T15:37:20;22.80;99.90
2861;DHT22;1438;50.922;6.704;2023-07-29T15:39:45;22.80;99.90
2861;DHT22;1438;50.922;6.704;2023-07-29T15:42:11;22.60;99.90
2861;DHT22;1438;50.922;6.704;2023-07-29T15:44:37;22.40;99.90
2861;DHT22;1438;50.922;6.704;2023-07-29T15:47:03;22.30;99.90
2861;DHT22;1438;50.922;6.704;2023-07-29T15:49:29;22.00;99.90
2861;DHT22;1438;50.922;6.704;2023-07-29T15:51:54;21.90;99.90
2861;DHT22;1438;50.922;6.704;2023-07-29T15:54:20;21.70;99.90
2861;DHT22;1438;50.922;6.704;2023-07-29T15:56:46;21.60;99.90
2861;DHT22;1438;50.922;6.704;2023-07-29T15:59:11;21.50;99.90
2861;DHT22;1438;50.922;6.704;2023-07-29T16:01:37;21.40;99.90
2861;DHT22;1438;50.922;6.704;2023-07-29T16:04:03;21.30;99.90
2861;DHT22;1438;50.922;6.704;2023-07-29T16:06:29;21.20;99.90
2861;DHT22;1438;50.922;6.704;2023-07-29T16:08:55;21.10;99.90
2861;DHT22;1438;50.922;6.704;2023-07-29T16:11:21;21.00;99.90
2861;DHT22;1438;50.922;6.704;2023-07-29T16:13:47;21.10;99.90
2861;DHT22;1438;50.922;6.704;2023-07-29T16:16:13;21.40;99.90
2861;DHT22;1438;50.922;6.704;2023-07-29T16:18:38;21.90;99.90
2861;DHT22;1438;50.922;6.704;2023-07-29T16:21:04;22.70;99.90
2861;DHT22;1438;50.922;6.704;2023-07-29T16:23:32;23.10;99.90
2861;DHT22;1438;50.922;6.704;2023-07-29T16:25:58;23.20;99.90